sensor_id;sensor_type;location;lat;lon;timestamp;temperature;humidity
35541;DHT22;21650;48.840;9.162;2023-06-24T00:00:36;18.50;99.90
35541;DHT22;21650;48.840;9.162;2023-06-24T00:03:02;18.60;99.90
35541;DHT22;21650;48.840;9.162;2023-06-24T00:05:28;18.50;99.90
35541;DHT22;21650;48.840;9.162;2023-06-24T00:07:54;18.60;99.90
35541;DHT22;21650;48.840;9.162;2023-06-24T00:10:22;18.60;99.90
35541;DHT22;21650;48.840;9.162;2023-06-24T00:12:48;18.50;99.90
35541;DHT22;21650;48.840;9.162;2023-06-24T00:15:14;18.50;99.90
35541;DHT22;21650;48.840;9.162;2023-06-24T00:17:39;18.50;99.90
35541;DHT22;21650;48.840;9.162;2023-06-24T00:20:06;18.50;99.90
35541;DHT22;21650;48.840;9.162;2023-06-24T00:22:38;18.40;99.90
35541;DHT22;21650;48.840;9.162;2023-06-24T00:25:09;18.40;99.90
35541;DHT22;21650;48.840;9.162;2023-06-24T00:27:35;18.40;99.90
35541;DHT22;21650;48.840;9.162;2023-06-24T00:30:00;18.30;99.90
35541;DHT22;21650;48.840;9.162;2023-06-24T00:32:26;18.30;99.90
35541;DHT22;21650;48.840;9.162;2023-06-24T00:34:51;18.20;99.90
35541;DHT22;21650;48.840;9.162;2023-06-24T00:37:17;18.10;99.90
35541;DHT22;21650;48.840;9.162;2023-06-24T00:39:43;18.10;99.90
35541;DHT22;21650;48.840;9.162;2023-06-24T00:42:08;18.00;99.90
35541;DHT22;21650;48.840;9.162;2023-06-24T00:44:34;17.70;99.90
35541;DHT22;21650;48.840;9.162;2023-06-24T00:47:02;17.80;99.90
35541;DHT22;21650;48.840;9.162;2023-06-24T00:49:28;17.70;99.90
35541;DHT22;21650;48.840;9.162;2023-06-24T00:51:54;17.70;99.90
35541;DHT22;21650;48.840;9.162;2023-06-24T00:54:21;17.60;99.90
35541;DHT22;21650;48.840;9.162;2023-06-24T00:56:46;17.70;99.90
35541;DHT22;21650;48.840;9.162;2023-06-24T00:59:13;17.70;99.90
35541;DHT22;21650;48.840;9.162;2023-06-24T01:01:40;17.70;99.90
35541;DHT22;21650;48.840;9.162;2023-06-24T01:04:06;17.70;99.90
35541;DHT22;21650;48.840;9.162;2023-06-24T01:06:35;17.70;99.90
35541;DHT22;21650;48.840;9.162;2023-06-24T01:09:02;17.70;99.90
35541;DHT22;21650;48.840;9.162;2023-06-24T01:11:29;17.80;99.90
35541;DHT22;21650;48.840;9.162;2023-06-24T01:13:56;17.70;99.90
35541;DHT22;21650;48.840;9.162;2023-06-24T01:16:51;17.70;99.90
35541;DHT22;21650;48.840;9.162;2023-06-24T01:22:19;17.60;99.90
35541;DHT22;21650;48.840;9.162;2023-06-24T01:27:52;17.60;99.90
35541;DHT22;21650;48.840;9.162;2023-06-24T01:33:02;17.50;99.90
35541;DHT22;21650;48.840;9.162;2023-06-24T01:35:31;17.50;99.90
35541;DHT22;21650;48.840;9.162;2023-06-24T01:38:00;17.30;99.90
35541;DHT22;21650;48.840;9.162;2023-06-24T01:40:42;17.40;99.90
35541;DHT22;21650;48.840;9.162;2023-06-24T01:43:09;17.40;99.90
35541;DHT22;21650;48.840;9.162;2023-06-24T01:45:40;17.30;99.90
35541;DHT22;21650;48.840;9.162;2023-06-24T01:48:15;17.20;99.90
35541;DHT22;21650;48.840;9.162;2023-06-24T01:50:53;17.30;99.90
35541;DHT22;21650;48.840;9.162;2023-06-24T01:53:20;17.30;99.90
35541;DHT22;21650;48.840;9.162;2023-06-24T01:55:46;17.20;99.90
35541;DHT22;21650;48.840;9.162;2023-06-24T01:58:16;17.20;99.90
35541;DHT22;21650;48.840;9.162;2023-06-24T02:00:42;17.30;99.90
35541;DHT22;21650;48.840;9.162;2023-06-24T02:03:08;17.20;99.90
35541;DHT22;21650;48.840;9.162;2023-06-24T02:05:36;17.20;99.90
35541;DHT22;21650;48.840;9.162;2023-06-24T02:08:06;17.20;99.90
35541;DHT22;21650;48.840;9.162;2023-06-24T02:10:33;17.20;99.90
35541;DHT22;21650;48.840;9.162;2023-06-24T02:12:59;17.20;99.90
35541;DHT22;21650;48.840;9.162;2023-06-24T02:15:26;17.10;99.90
35541;DHT22;21650;48.840;9.162;2023-06-24T02:17:53;17.10;99.90
35541;DHT22;21650;48.840;9.162;2023-06-24T02:20:21;17.20;99.90
35541;DHT22;21650;48.840;9.162;2023-06-24T02:22:52;17.20;99.90
35541;DHT22;21650;48.840;9.162;2023-06-24T02:25:18;17.10;99.90
35541;DHT22;21650;48.840;9.162;2023-06-24T02:27:44;17.10;99.90
35541;DHT22;21650;48.840;9.162;2023-06-24T02:30:10;17.00;99.90
35541;DHT22;21650;48.840;9.162;2023-06-24T02:32:36;17.10;99.90
35541;DHT22;21650;48.840;9.162;2023-06-24T02:35:04;17.00;99.90
35541;DHT22;21650;48.840;9.162;2023-06-24T02:37:30;17.00;99.90
35541;DHT22;21650;48.840;9.162;2023-06-24T02:39:56;17.00;99.90
35541;DHT22;21650;48.840;9.162;2023-06-24T02:42:22;16.90;99.90
35541;DHT22;21650;48.840;9.162;2023-06-24T02:44:48;16.70;99.90
35541;DHT22;21650;48.840;9.162;2023-06-24T02:47:14;16.50;99.90
35541;DHT22;21650;48.840;9.162;2023-06-24T02:49:43;16.60;99.90
35541;DHT22;21650;48.840;9.162;2023-06-24T02:52:12;16.70;99.90
35541;DHT22;21650;48.840;9.162;2023-06-24T02:54:38;16.70;99.90
35541;DHT22;21650;48.840;9.162;2023-06-24T02:57:05;16.80;99.90
35541;DHT22;21650;48.840;9.162;2023-06-24T02:59:32;16.80;99.90
35541;DHT22;21650;48.840;9.162;2023-06-24T03:01:58;16.80;99.90
35541;DHT22;21650;48.840;9.162;2023-06-24T03:04:24;16.60;99.90
35541;DHT22;21650;48.840;9.162;2023-06-24T03:06:50;16.70;99.90
35541;DHT22;21650;48.840;9.162;2023-06-24T03:09:18;16.70;99.90
35541;DHT22;21650;48.840;9.162;2023-06-24T03:11:44;16.70;99.90
35541;DHT22;21650;48.840;9.162;2023-06-24T03:14:10;16.70;99.90
35541;DHT22;21650;48.840;9.162;2023-06-24T03:16:36;16.60;99.90
35541;DHT22;21650;48.840;9.162;2023-06-24T03:19:03;16.60;99.90
35541;DHT22;21650;48.840;9.162;2023-06-24T03:21:29;16.70;99.90
35541;DHT22;21650;48.840;9.162;2023-06-24T03:23:55;16.60;99.90
35541;DHT22;21650;48.840;9.162;2023-06-24T03:26:21;16.50;99.90
35541;DHT22;21650;48.840;9.162;2023-06-24T03:28:46;16.50;99.90
35541;DHT22;21650;48.840;9.162;2023-06-24T03:31:13;16.60;99.90
35541;DHT22;21650;48.840;9.162;2023-06-24T03:33:40;16.50;99.90
35541;DHT22;21650;48.840;9.162;2023-06-24T03:36:10;16.50;99.90
35541;DHT22;21650;48.840;9.162;2023-06-24T03:38:35;16.60;99.90
35541;DHT22;21650;48.840;9.162;2023-06-24T03:41:01;16.60;99.90
35541;DHT22;21650;48.840;9.162;2023-06-24T03:43:27;16.50;99.90
35541;DHT22;21650;48.840;9.162;2023-06-24T03:45:52;16.50;99.90
35541;DHT22;21650;48.840;9.162;2023-06-24T03:48:18;16.50;99.90
35541;DHT22;21650;48.840;9.162;2023-06-24T03:50:43;16.50;99.90
35541;DHT22;21650;48.840;9.162;2023-06-24T03:53:09;16.50;99.90
35541;DHT22;21650;48.840;9.162;2023-06-24T03:55:34;16.60;99.90
35541;DHT22;21650;48.840;9.162;2023-06-24T03:58:00;16.60;99.90
35541;DHT22;21650;48.840;9.162;2023-06-24T04:00:26;16.60;99.90
35541;DHT22;21650;48.840;9.162;2023-06-24T04:02:51;16.70;99.90
35541;DHT22;21650;48.840;9.162;2023-06-24T04:05:19;16.70;99.90
35541;DHT22;21650;48.840;9.162;2023-06-24T04:07:45;16.70;99.90
35541;DHT22;21650;48.840;9.162;2023-06-24T04:10:16;16.70;99.90
35541;DHT22;21650;48.840;9.162;2023-06-24T04:12:42;16.70;99.90
35541;DHT22;21650;48.840;9.162;2023-06-24T04:15:08;16.70;99.90
35541;DHT22;21650;48.840;9.162;2023-06-24T04:17:34;16.80;99.90
35541;DHT22;21650;48.840;9.162;2023-06-24T04:19:59;16.80;99.90
35541;DHT22;21650;48.840;9.162;2023-06-24T04:22:25;16.90;99.90
35541;DHT22;21650;48.840;9.162;2023-06-24T04:24:51;16.90;99.90
35541;DHT22;21650;48.840;9.162;2023-06-24T04:27:16;17.00;99.90
35541;DHT22;21650;48.840;9.162;2023-06-24T04:29:42;17.00;99.90
35541;DHT22;21650;48.840;9.162;2023-06-24T04:32:08;17.10;99.90
35541;DHT22;21650;48.840;9.162;2023-06-24T04:34:33;17.10;99.90
35541;DHT22;21650;48.840;9.162;2023-06-24T04:36:59;17.10;99.90
35541;DHT22;21650;48.840;9.162;2023-06-24T04:39:24;17.20;99.90
35541;DHT22;21650;48.840;9.162;2023-06-24T04:41:50;17.20;99.90
35541;DHT22;21650;48.840;9.162;2023-06-24T04:44:15;17.20;99.90
35541;DHT22;21650;48.840;9.162;2023-06-24T04:46:41;17.20;99.90
35541;DHT22;21650;48.840;9.162;2023-06-24T04:49:07;17.20;99.90
35541;DHT22;21650;48.840;9.162;2023-06-24T04:51:32;17.30;99.90
35541;DHT22;21650;48.840;9.162;2023-06-24T04:53:58;17.40;99.90
35541;DHT22;21650;48.840;9.162;2023-06-24T04:56:24;17.60;99.90
35541;DHT22;21650;48.840;9.162;2023-06-24T04:58:50;17.60;99.90
35541;DHT22;21650;48.840;9.162;2023-06-24T05:01:16;17.60;99.90
35541;DHT22;21650;48.840;9.162;2023-06-24T05:03:42;17.60;99.90
35541;DHT22;21650;48.840;9.162;2023-06-24T05:06:08;17.70;99.90
35541;DHT22;21650;48.840;9.162;2023-06-24T05:08:33;17.70;99.90
35541;DHT22;21650;48.840;9.162;2023-06-24T05:10:59;18.00;99.90
35541;DHT22;21650;48.840;9.162;2023-06-24T05:13:24;18.10;99.90
35541;DHT22;21650;48.840;9.162;2023-06-24T05:15:50;18.30;99.90
35541;DHT22;21650;48.840;9.162;2023-06-24T05:18:15;18.60;99.90
35541;DHT22;21650;48.840;9.162;2023-06-24T05:20:41;18.80;99.90
35541;DHT22;21650;48.840;9.162;2023-06-24T05:23:06;18.80;99.90
35541;DHT22;21650;48.840;9.162;2023-06-24T05:25:32;19.00;99.90
35541;DHT22;21650;48.840;9.162;2023-06-24T05:27:58;19.20;99.90
35541;DHT22;21650;48.840;9.162;2023-06-24T05:30:23;19.30;99.90
35541;DHT22;21650;48.840;9.162;2023-06-24T05:32:49;19.60;99.90
35541;DHT22;21650;48.840;9.162;2023-06-24T05:35:14;19.70;99.90
35541;DHT22;21650;48.840;9.162;2023-06-24T05:37:40;19.90;99.90
35541;DHT22;21650;48.840;9.162;2023-06-24T05:40:06;19.90;99.90
35541;DHT22;21650;48.840;9.162;2023-06-24T05:42:32;19.90;99.90
35541;DHT22;21650;48.840;9.162;2023-06-24T05:44:59;19.90;99.90
35541;DHT22;21650;48.840;9.162;2023-06-24T05:47:24;20.00;99.90
35541;DHT22;21650;48.840;9.162;2023-06-24T05:49:50;20.00;99.90
35541;DHT22;21650;48.840;9.162;2023-06-24T05:52:16;20.10;99.90
35541;DHT22;21650;48.840;9.162;2023-06-24T05:54:41;20.10;99.90
35541;DHT22;21650;48.840;9.162;2023-06-24T05:57:07;20.20;99.90
35541;DHT22;21650;48.840;9.162;2023-06-24T05:59:33;20.20;99.90
35541;DHT22;21650;48.840;9.162;2023-06-24T06:01:59;20.20;99.90
35541;DHT22;21650;48.840;9.162;2023-06-24T06:04:27;20.10;99.90
35541;DHT22;21650;48.840;9.162;2023-06-24T06:06:52;20.20;99.90
35541;DHT22;21650;48.840;9.162;2023-06-24T06:09:18;20.20;99.90
35541;DHT22;21650;48.840;9.162;2023-06-24T06:11:44;20.10;99.90
35541;DHT22;21650;48.840;9.162;2023-06-24T06:14:09;20.30;99.90
35541;DHT22;21650;48.840;9.162;2023-06-24T06:16:35;20.50;99.90
35541;DHT22;21650;48.840;9.162;2023-06-24T06:19:01;20.50;99.90
35541;DHT22;21650;48.840;9.162;2023-06-24T06:21:26;20.30;99.90
35541;DHT22;21650;48.840;9.162;2023-06-24T06:23:52;20.70;99.90
35541;DHT22;21650;48.840;9.162;2023-06-24T06:26:17;20.70;99.90
35541;DHT22;21650;48.840;9.162;2023-06-24T06:28:43;20.80;99.90
35541;DHT22;21650;48.840;9.162;2023-06-24T06:31:09;20.60;99.90
35541;DHT22;21650;48.840;9.162;2023-06-24T06:33:34;20.50;99.90
35541;DHT22;21650;48.840;9.162;2023-06-24T06:36:00;20.70;99.90
35541;DHT22;21650;48.840;9.162;2023-06-24T06:38:28;21.00;99.90
35541;DHT22;21650;48.840;9.162;2023-06-24T06:40:56;21.20;99.90
35541;DHT22;21650;48.840;9.162;2023-06-24T06:43:21;21.40;99.90
35541;DHT22;21650;48.840;9.162;2023-06-24T06:45:48;21.30;99.90
35541;DHT22;21650;48.840;9.162;2023-06-24T06:48:14;21.40;99.90
35541;DHT22;21650;48.840;9.162;2023-06-24T06:50:39;21.50;99.90
35541;DHT22;21650;48.840;9.162;2023-06-24T06:53:05;21.60;99.90
35541;DHT22;21650;48.840;9.162;2023-06-24T06:55:31;21.70;99.90
35541;DHT22;21650;48.840;9.162;2023-06-24T06:57:56;21.90;99.90
35541;DHT22;21650;48.840;9.162;2023-06-24T07:00:22;21.80;99.90
35541;DHT22;21650;48.840;9.162;2023-06-24T07:02:47;21.90;99.90
35541;DHT22;21650;48.840;9.162;2023-06-24T07:05:13;22.00;99.90
35541;DHT22;21650;48.840;9.162;2023-06-24T07:07:39;21.90;99.90
35541;DHT22;21650;48.840;9.162;2023-06-24T07:10:05;22.00;99.90
35541;DHT22;21650;48.840;9.162;2023-06-24T07:12:30;21.90;99.90
35541;DHT22;21650;48.840;9.162;2023-06-24T07:14:56;21.70;99.90
35541;DHT22;21650;48.840;9.162;2023-06-24T07:17:22;21.70;99.70
35541;DHT22;21650;48.840;9.162;2023-06-24T07:19:48;21.70;99.20
35541;DHT22;21650;48.840;9.162;2023-06-24T07:22:14;21.80;99.80
35541;DHT22;21650;48.840;9.162;2023-06-24T07:24:39;22.20;99.50
35541;DHT22;21650;48.840;9.162;2023-06-24T07:27:05;22.20;98.20
35541;DHT22;21650;48.840;9.162;2023-06-24T07:29:31;22.10;98.40
35541;DHT22;21650;48.840;9.162;2023-06-24T07:31:57;22.40;98.10
35541;DHT22;21650;48.840;9.162;2023-06-24T07:34:22;22.50;98.80
35541;DHT22;21650;48.840;9.162;2023-06-24T07:36:48;22.60;97.30
35541;DHT22;21650;48.840;9.162;2023-06-24T07:39:16;22.80;96.10
35541;DHT22;21650;48.840;9.162;2023-06-24T07:41:42;22.90;96.30
35541;DHT22;21650;48.840;9.162;2023-06-24T07:44:08;23.00;95.80
35541;DHT22;21650;48.840;9.162;2023-06-24T07:46:34;22.90;95.40
35541;DHT22;21650;48.840;9.162;2023-06-24T07:48:59;22.90;96.70
35541;DHT22;21650;48.840;9.162;2023-06-24T07:51:25;23.10;95.70
35541;DHT22;21650;48.840;9.162;2023-06-24T07:53:51;23.20;96.10
35541;DHT22;21650;48.840;9.162;2023-06-24T07:56:17;23.10;94.80
35541;DHT22;21650;48.840;9.162;2023-06-24T07:58:42;22.90;95.70
35541;DHT22;21650;48.840;9.162;2023-06-24T08:01:08;23.20;95.60
35541;DHT22;21650;48.840;9.162;2023-06-24T08:03:34;23.10;95.50
35541;DHT22;21650;48.840;9.162;2023-06-24T08:06:02;23.10;95.20
35541;DHT22;21650;48.840;9.162;2023-06-24T08:08:28;23.10;93.90
35541;DHT22;21650;48.840;9.162;2023-06-24T08:10:53;23.40;95.40
35541;DHT22;21650;48.840;9.162;2023-06-24T08:13:19;23.50;94.90
35541;DHT22;21650;48.840;9.162;2023-06-24T08:15:44;23.60;95.80
35541;DHT22;21650;48.840;9.162;2023-06-24T08:18:10;24.00;95.50
35541;DHT22;21650;48.840;9.162;2023-06-24T08:20:36;24.40;94.20
35541;DHT22;21650;48.840;9.162;2023-06-24T08:23:01;24.60;93.50
35541;DHT22;21650;48.840;9.162;2023-06-24T08:25:27;25.10;92.60
35541;DHT22;21650;48.840;9.162;2023-06-24T08:27:53;25.10;93.00
35541;DHT22;21650;48.840;9.162;2023-06-24T08:30:18;25.40;93.80
35541;DHT22;21650;48.840;9.162;2023-06-24T08:32:44;25.90;92.90
35541;DHT22;21650;48.840;9.162;2023-06-24T08:35:10;26.30;92.60
35541;DHT22;21650;48.840;9.162;2023-06-24T08:37:36;26.30;90.30
35541;DHT22;21650;48.840;9.162;2023-06-24T08:40:03;26.30;90.80
35541;DHT22;21650;48.840;9.162;2023-06-24T08:42:30;26.30;90.50
35541;DHT22;21650;48.840;9.162;2023-06-24T08:44:55;26.40;90.50
35541;DHT22;21650;48.840;9.162;2023-06-24T08:47:24;26.20;87.40
35541;DHT22;21650;48.840;9.162;2023-06-24T08:49:53;26.10;91.20
35541;DHT22;21650;48.840;9.162;2023-06-24T08:52:25;27.00;91.30
35541;DHT22;21650;48.840;9.162;2023-06-24T08:54:55;27.10;87.50
35541;DHT22;21650;48.840;9.162;2023-06-24T08:57:22;27.20;86.60
35541;DHT22;21650;48.840;9.162;2023-06-24T08:59:48;27.60;89.00
35541;DHT22;21650;48.840;9.162;2023-06-24T09:02:14;27.50;84.30
35541;DHT22;21650;48.840;9.162;2023-06-24T09:04:40;27.80;86.20
35541;DHT22;21650;48.840;9.162;2023-06-24T09:07:06;28.00;83.30
35541;DHT22;21650;48.840;9.162;2023-06-24T09:09:32;27.50;78.90
35541;DHT22;21650;48.840;9.162;2023-06-24T09:11:59;27.30;81.40
35541;DHT22;21650;48.840;9.162;2023-06-24T09:14:26;27.60;81.50
35541;DHT22;21650;48.840;9.162;2023-06-24T09:16:54;27.40;77.40
35541;DHT22;21650;48.840;9.162;2023-06-24T09:19:23;27.60;81.90
35541;DHT22;21650;48.840;9.162;2023-06-24T09:21:49;27.10;76.50
35541;DHT22;21650;48.840;9.162;2023-06-24T09:24:17;27.40;81.90
35541;DHT22;21650;48.840;9.162;2023-06-24T09:26:43;27.50;76.80
35541;DHT22;21650;48.840;9.162;2023-06-24T09:29:14;27.40;79.00
35541;DHT22;21650;48.840;9.162;2023-06-24T09:31:47;27.40;74.80
35541;DHT22;21650;48.840;9.162;2023-06-24T09:34:13;27.70;78.50
35541;DHT22;21650;48.840;9.162;2023-06-24T09:36:43;27.70;76.00
35541;DHT22;21650;48.840;9.162;2023-06-24T09:39:10;27.30;77.80
35541;DHT22;21650;48.840;9.162;2023-06-24T09:41:36;27.50;77.10
35541;DHT22;21650;48.840;9.162;2023-06-24T09:44:02;27.60;76.20
35541;DHT22;21650;48.840;9.162;2023-06-24T09:46:30;27.80;73.20
35541;DHT22;21650;48.840;9.162;2023-06-24T09:48:55;27.80;76.20
35541;DHT22;21650;48.840;9.162;2023-06-24T09:51:22;28.00;73.50
35541;DHT22;21650;48.840;9.162;2023-06-24T09:53:50;27.90;76.80
35541;DHT22;21650;48.840;9.162;2023-06-24T09:56:18;28.00;74.50
35541;DHT22;21650;48.840;9.162;2023-06-24T09:58:44;28.10;77.00
35541;DHT22;21650;48.840;9.162;2023-06-24T10:01:11;28.10;69.30
35541;DHT22;21650;48.840;9.162;2023-06-24T10:03:39;28.30;78.80
35541;DHT22;21650;48.840;9.162;2023-06-24T10:06:05;28.50;75.90
35541;DHT22;21650;48.840;9.162;2023-06-24T10:08:32;27.80;71.30
35541;DHT22;21650;48.840;9.162;2023-06-24T10:10:59;27.50;73.60
35541;DHT22;21650;48.840;9.162;2023-06-24T10:13:25;27.70;71.80
35541;DHT22;21650;48.840;9.162;2023-06-24T10:15:51;27.60;73.10
35541;DHT22;21650;48.840;9.162;2023-06-24T10:18:32;28.10;70.00
35541;DHT22;21650;48.840;9.162;2023-06-24T10:21:02;27.60;70.00
35541;DHT22;21650;48.840;9.162;2023-06-24T10:23:35;27.60;70.90
35541;DHT22;21650;48.840;9.162;2023-06-24T10:26:08;27.80;70.60
35541;DHT22;21650;48.840;9.162;2023-06-24T10:34:38;28.10;73.50
35541;DHT22;21650;48.840;9.162;2023-06-24T10:44:59;27.20;64.30
35541;DHT22;21650;48.840;9.162;2023-06-24T10:47:26;27.00;66.10
35541;DHT22;21650;48.840;9.162;2023-06-24T10:49:52;27.20;66.10
35541;DHT22;21650;48.840;9.162;2023-06-24T10:52:22;27.60;62.60
35541;DHT22;21650;48.840;9.162;2023-06-24T10:54:49;27.60;59.80
35541;DHT22;21650;48.840;9.162;2023-06-24T10:57:15;27.90;61.10
35541;DHT22;21650;48.840;9.162;2023-06-24T10:59:47;27.70;61.30
35541;DHT22;21650;48.840;9.162;2023-06-24T11:02:15;27.70;61.90
35541;DHT22;21650;48.840;9.162;2023-06-24T11:07:13;27.30;63.60
35541;DHT22;21650;48.840;9.162;2023-06-24T11:09:42;27.70;64.50
35541;DHT22;21650;48.840;9.162;2023-06-24T11:12:09;27.80;64.20
35541;DHT22;21650;48.840;9.162;2023-06-24T11:14:36;28.20;62.40
35541;DHT22;21650;48.840;9.162;2023-06-24T11:17:03;28.10;62.20
35541;DHT22;21650;48.840;9.162;2023-06-24T11:19:30;27.90;63.80
35541;DHT22;21650;48.840;9.162;2023-06-24T11:22:02;27.90;61.90
35541;DHT22;21650;48.840;9.162;2023-06-24T11:24:28;28.00;64.60
35541;DHT22;21650;48.840;9.162;2023-06-24T11:26:54;28.00;64.60
35541;DHT22;21650;48.840;9.162;2023-06-24T11:29:20;28.40;63.90
35541;DHT22;21650;48.840;9.162;2023-06-24T11:31:46;28.40;62.40
35541;DHT22;21650;48.840;9.162;2023-06-24T11:34:11;28.40;59.70
35541;DHT22;21650;48.840;9.162;2023-06-24T11:36:37;28.00;59.40
35541;DHT22;21650;48.840;9.162;2023-06-24T11:39:02;27.90;63.50
35541;DHT22;21650;48.840;9.162;2023-06-24T11:41:28;28.00;62.60
35541;DHT22;21650;48.840;9.162;2023-06-24T11:43:54;28.30;62.80
35541;DHT22;21650;48.840;9.162;2023-06-24T11:46:28;28.10;61.90
35541;DHT22;21650;48.840;9.162;2023-06-24T11:49:08;27.90;61.40
35541;DHT22;21650;48.840;9.162;2023-06-24T11:51:35;27.80;62.60
35541;DHT22;21650;48.840;9.162;2023-06-24T11:54:05;27.90;61.40
35541;DHT22;21650;48.840;9.162;2023-06-24T11:56:41;27.80;61.60
35541;DHT22;21650;48.840;9.162;2023-06-24T12:01:44;28.10;60.80
35541;DHT22;21650;48.840;9.162;2023-06-24T12:04:11;28.30;60.40
35541;DHT22;21650;48.840;9.162;2023-06-24T12:06:42;28.40;60.80
35541;DHT22;21650;48.840;9.162;2023-06-24T12:09:08;28.50;62.00
35541;DHT22;21650;48.840;9.162;2023-06-24T12:11:34;28.70;60.70
35541;DHT22;21650;48.840;9.162;2023-06-24T12:14:00;29.10;65.80
35541;DHT22;21650;48.840;9.162;2023-06-24T12:16:26;29.10;59.20
35541;DHT22;21650;48.840;9.162;2023-06-24T12:18:52;29.00;61.50
35541;DHT22;21650;48.840;9.162;2023-06-24T12:21:18;28.50;58.90
35541;DHT22;21650;48.840;9.162;2023-06-24T12:23:44;28.60;60.10
35541;DHT22;21650;48.840;9.162;2023-06-24T12:26:10;28.80;59.00
35541;DHT22;21650;48.840;9.162;2023-06-24T12:28:36;28.70;59.50
35541;DHT22;21650;48.840;9.162;2023-06-24T12:31:01;28.10;58.40
35541;DHT22;21650;48.840;9.162;2023-06-24T12:33:28;28.50;60.00
35541;DHT22;21650;48.840;9.162;2023-06-24T12:35:53;29.00;59.60
35541;DHT22;21650;48.840;9.162;2023-06-24T12:38:19;29.10;58.70
35541;DHT22;21650;48.840;9.162;2023-06-24T12:40:45;29.10;59.00
35541;DHT22;21650;48.840;9.162;2023-06-24T12:43:11;29.60;58.80
35541;DHT22;21650;48.840;9.162;2023-06-24T12:45:38;29.20;56.60
35541;DHT22;21650;48.840;9.162;2023-06-24T12:48:03;28.80;56.60
35541;DHT22;21650;48.840;9.162;2023-06-24T12:50:29;28.70;57.40
35541;DHT22;21650;48.840;9.162;2023-06-24T12:52:57;29.00;58.80
35541;DHT22;21650;48.840;9.162;2023-06-24T12:55:23;29.20;57.80
35541;DHT22;21650;48.840;9.162;2023-06-24T12:57:48;29.10;58.40
35541;DHT22;21650;48.840;9.162;2023-06-24T13:00:14;29.30;58.00
35541;DHT22;21650;48.840;9.162;2023-06-24T13:02:40;29.70;58.20
35541;DHT22;21650;48.840;9.162;2023-06-24T13:05:06;29.60;57.30
35541;DHT22;21650;48.840;9.162;2023-06-24T13:07:32;29.50;56.40
35541;DHT22;21650;48.840;9.162;2023-06-24T13:09:57;29.40;57.00
35541;DHT22;21650;48.840;9.162;2023-06-24T13:12:24;29.30;55.70
35541;DHT22;21650;48.840;9.162;2023-06-24T13:14:50;29.60;56.40
35541;DHT22;21650;48.840;9.162;2023-06-24T13:17:15;29.70;54.80
35541;DHT22;21650;48.840;9.162;2023-06-24T13:19:41;29.70;55.80
35541;DHT22;21650;48.840;9.162;2023-06-24T13:22:06;29.40;53.80
35541;DHT22;21650;48.840;9.162;2023-06-24T13:24:32;29.10;55.90
35541;DHT22;21650;48.840;9.162;2023-06-24T13:26:58;29.00;54.10
35541;DHT22;21650;48.840;9.162;2023-06-24T13:29:23;29.20;54.40
35541;DHT22;21650;48.840;9.162;2023-06-24T13:31:49;29.00;53.10
35541;DHT22;21650;48.840;9.162;2023-06-24T13:34:14;28.90;54.90
35541;DHT22;21650;48.840;9.162;2023-06-24T13:36:40;29.00;54.00
35541;DHT22;21650;48.840;9.162;2023-06-24T13:39:07;29.40;55.50
35541;DHT22;21650;48.840;9.162;2023-06-24T13:41:34;29.80;55.10
35541;DHT22;21650;48.840;9.162;2023-06-24T13:44:04;29.90;54.20
35541;DHT22;21650;48.840;9.162;2023-06-24T13:46:30;29.90;54.40
35541;DHT22;21650;48.840;9.162;2023-06-24T13:48:57;30.20;55.60
35541;DHT22;21650;48.840;9.162;2023-06-24T13:51:24;29.90;55.80
35541;DHT22;21650;48.840;9.162;2023-06-24T13:53:51;30.10;56.10
35541;DHT22;21650;48.840;9.162;2023-06-24T13:56:17;30.20;54.20
35541;DHT22;21650;48.840;9.162;2023-06-24T13:58:44;30.40;56.70
35541;DHT22;21650;48.840;9.162;2023-06-24T14:01:09;29.90;55.60
35541;DHT22;21650;48.840;9.162;2023-06-24T14:03:35;30.00;54.70
35541;DHT22;21650;48.840;9.162;2023-06-24T14:06:00;29.90;55.70
35541;DHT22;21650;48.840;9.162;2023-06-24T14:08:30;30.20;55.40
35541;DHT22;21650;48.840;9.162;2023-06-24T14:10:57;29.70;54.00
35541;DHT22;21650;48.840;9.162;2023-06-24T14:13:23;29.80;54.50
35541;DHT22;21650;48.840;9.162;2023-06-24T14:15:49;29.90;56.10
35541;DHT22;21650;48.840;9.162;2023-06-24T14:18:14;29.90;56.10
35541;DHT22;21650;48.840;9.162;2023-06-24T14:20:41;29.90;55.10
35541;DHT22;21650;48.840;9.162;2023-06-24T14:23:06;29.50;54.40
35541;DHT22;21650;48.840;9.162;2023-06-24T14:25:32;29.70;54.60
35541;DHT22;21650;48.840;9.162;2023-06-24T14:27:58;29.70;54.30
35541;DHT22;21650;48.840;9.162;2023-06-24T14:30:23;29.70;54.50
35541;DHT22;21650;48.840;9.162;2023-06-24T14:32:49;30.20;54.80
35541;DHT22;21650;48.840;9.162;2023-06-24T14:35:14;30.00;54.30
35541;DHT22;21650;48.840;9.162;2023-06-24T14:37:40;30.00;53.40
35541;DHT22;21650;48.840;9.162;2023-06-24T14:40:07;30.40;54.30
35541;DHT22;21650;48.840;9.162;2023-06-24T14:42:34;30.20;53.40
35541;DHT22;21650;48.840;9.162;2023-06-24T14:45:00;29.90;54.10
35541;DHT22;21650;48.840;9.162;2023-06-24T14:47:26;30.00;55.00
35541;DHT22;21650;48.840;9.162;2023-06-24T14:49:51;29.60;54.20
35541;DHT22;21650;48.840;9.162;2023-06-24T14:52:17;30.20;55.40
35541;DHT22;21650;48.840;9.162;2023-06-24T14:54:43;30.40;54.10
35541;DHT22;21650;48.840;9.162;2023-06-24T14:57:08;30.30;53.30
35541;DHT22;21650;48.840;9.162;2023-06-24T14:59:34;30.50;53.40
35541;DHT22;21650;48.840;9.162;2023-06-24T15:01:59;30.30;52.10
35541;DHT22;21650;48.840;9.162;2023-06-24T15:04:25;30.00;52.70
35541;DHT22;21650;48.840;9.162;2023-06-24T15:06:50;29.80;53.20
35541;DHT22;21650;48.840;9.162;2023-06-24T15:09:16;29.70;53.60
35541;DHT22;21650;48.840;9.162;2023-06-24T15:11:42;29.50;53.40
35541;DHT22;21650;48.840;9.162;2023-06-24T15:14:07;29.60;53.60
35541;DHT22;21650;48.840;9.162;2023-06-24T15:16:33;29.70;54.90
35541;DHT22;21650;48.840;9.162;2023-06-24T15:18:58;29.80;54.10
35541;DHT22;21650;48.840;9.162;2023-06-24T15:21:24;29.80;52.40
35541;DHT22;21650;48.840;9.162;2023-06-24T15:23:50;29.60;54.50
35541;DHT22;21650;48.840;9.162;2023-06-24T15:26:15;29.90;53.60
35541;DHT22;21650;48.840;9.162;2023-06-24T15:28:41;29.40;53.80
35541;DHT22;21650;48.840;9.162;2023-06-24T15:31:06;29.70;54.80
35541;DHT22;21650;48.840;9.162;2023-06-24T15:33:32;29.90;52.30
35541;DHT22;21650;48.840;9.162;2023-06-24T15:35:57;30.10;53.00
35541;DHT22;21650;48.840;9.162;2023-06-24T15:38:24;30.60;53.60
35541;DHT22;21650;48.840;9.162;2023-06-24T15:40:50;30.30;53.60
35541;DHT22;21650;48.840;9.162;2023-06-24T15:43:16;30.30;52.70
35541;DHT22;21650;48.840;9.162;2023-06-24T15:45:41;30.00;52.80
35541;DHT22;21650;48.840;9.162;2023-06-24T15:48:07;30.10;53.30
35541;DHT22;21650;48.840;9.162;2023-06-24T15:50:32;30.00;54.60
35541;DHT22;21650;48.840;9.162;2023-06-24T15:52:58;29.60;53.70